Time;durP1;ratioP1;P1;durP2;ratioP2;P2;SDS_P1;SDS_P2;PMS_P1;PMS_P2;Temp;Humidity;BMP_temperature;BMP_pressure;BME280_temperature;BME280_humidity;BME280_pressure;Samples;Min_cycle;Max_cycle;Signal;HPM_P1;HPM_P2
2020/12/01 00:00:27;;;;;;;43.65;28.17;;;;;;;;;;5076405;28;20037;-73
2020/12/01 00:02:53;;;;;;;40.88;27.10;;;;;;;;;;5076302;28;20465;-73
2020/12/01 00:05:21;;;;;;;38.53;26.00;;;;;;;;;;5076304;28;20470;-73
2020/12/01 00:07:46;;;;;;;37.03;24.90;;;;;;;;;;5076326;28;20470;-73
2020/12/01 00:10:14;;;;;;;36.22;24.33;;;;;;;;;;5076254;28;20031;-73
2020/12/01 00:12:45;;;;;;;36.08;24.70;;;;;;;;;;5076181;28;20039;-73
2020/12/01 00:15:13;;;;;;;34.72;23.25;;;;;;;;;;5076120;28;20039;-73
2020/12/01 00:17:38;;;;;;;34.10;24.05;;;;;;;;;;5076115;28;20032;-73
2020/12/01 00:20:07;;;;;;;40.88;26.48;;;;;;;;;;5077715;28;20645;-73
2020/12/01 00:22:32;;;;;;;40.08;26.15;;;;;;;;;;5096413;28;20083;-73
2020/12/01 00:24:58;;;;;;;44.30;26.83;;;;;;;;;;5094952;28;20063;-73
2020/12/01 00:27:24;;;;;;;37.88;26.23;;;;;;;;;;5095161;28;20036;-73
2020/12/01 00:29:49;;;;;;;43.10;25.17;;;;;;;;;;5096270;28;20594;-73
2020/12/01 00:32:15;;;;;;;38.08;24.80;;;;;;;;;;5096148;28;20034;-73
2020/12/01 00:34:40;;;;;;;36.53;24.55;;;;;;;;;;5095235;28;20106;-73
2020/12/01 00:37:05;;;;;;;38.30;24.45;;;;;;;;;;5094856;28;20036;-73
2020/12/01 00:39:31;;;;;;;33.55;23.38;;;;;;;;;;5095985;28;20472;-73
2020/12/01 00:41:56;;;;;;;36.10;23.50;;;;;;;;;;5095795;28;20051;-73
2020/12/01 00:44:22;;;;;;;44.70;28.05;;;;;;;;;;5095850;28;20093;-73
2020/12/01 00:46:47;;;;;;;38.78;24.88;;;;;;;;;;5094471;28;20036;-73
2020/12/01 00:49:13;;;;;;;40.65;26.98;;;;;;;;;;5094608;28;20036;-73
2020/12/01 00:51:43;;;;;;;41.30;26.15;;;;;;;;;;5093001;28;20040;-73
2020/12/01 00:54:09;;;;;;;36.15;23.70;;;;;;;;;;5095509;28;20491;-73
2020/12/01 00:56:35;;;;;;;36.75;25.20;;;;;;;;;;5095828;28;20446;-73
2020/12/01 00:59:01;;;;;;;39.25;25.60;;;;;;;;;;5095224;28;20516;-73
2020/12/01 01:01:35;;;;;;;39.65;25.75;;;;;;;;;;5094316;28;20036;-73
2020/12/01 01:04:02;;;;;;;37.40;23.92;;;;;;;;;;5095546;28;20059;-73
2020/12/01 01:06:27;;;;;;;31.65;23.02;;;;;;;;;;5095476;28;20470;-73
2020/12/01 01:08:53;;;;;;;36.08;24.55;;;;;;;;;;5094112;28;20034;-73
2020/12/01 01:11:26;;;;;;;39.75;25.13;;;;;;;;;;5095164;28;20039;-73
2020/12/01 01:13:52;;;;;;;33.20;23.05;;;;;;;;;;5095289;28;20047;-73
2020/12/01 01:16:18;;;;;;;35.42;23.17;;;;;;;;;;5095236;28;20454;-73
2020/12/01 01:18:43;;;;;;;33.00;23.02;;;;;;;;;;5095302;28;20036;-73
2020/12/01 01:21:08;;;;;;;31.17;21.35;;;;;;;;;;5094990;28;20078;-73
2020/12/01 01:23:34;;;;;;;32.13;21.60;;;;;;;;;;5095207;28;20068;-73
2020/12/01 01:25:59;;;;;;;28.98;19.95;;;;;;;;;;5095257;28;20035;-73
2020/12/01 01:28:25;;;;;;;31.08;21.25;;;;;;;;;;5094314;28;20040;-74
2020/12/01 01:30:50;;;;;;;34.60;23.35;;;;;;;;;;5093714;28;20054;-73
2020/12/01 01:33:15;;;;;;;34.65;21.92;;;;;;;;;;5095153;28;20373;-74
2020/12/01 01:35:41;;;;;;;33.33;21.50;;;;;;;;;;5094666;28;20032;-74
2020/12/01 01:38:08;;;;;;;29.25;19.52;;;;;;;;;;5094903;28;20499;-74
2020/12/01 01:40:34;;;;;;;35.28;23.05;;;;;;;;;;5094854;28;20044;-74
2020/12/01 01:43:00;;;;;;;32.75;21.42;;;;;;;;;;5094658;28;20091;-73
2020/12/01 01:45:46;;;;;;;29.52;20.10;;;;;;;;;;5093974;28;20055;-74
2020/12/01 01:48:15;;;;;;;34.33;23.65;;;;;;;;;;5094474;28;20081;-73
2020/12/01 01:50:41;;;;;;;31.23;20.98;;;;;;;;;;5094637;28;20382;-73
2020/12/01 01:53:06;;;;;;;32.45;21.40;;;;;;;;;;5094603;28;20414;-74
2020/12/01 01:55:32;;;;;;;29.80;19.60;;;;;;;;;;5093745;28;20089;-74
2020/12/01 01:58:03;;;;;;;28.30;19.88;;;;;;;;;;5093089;28;20047;-74
2020/12/01 02:00:58;;;;;;;30.00;18.58;;;;;;;;;;5094530;28;20115;-74
2020/12/01 02:03:48;;;;;;;31.48;20.73;;;;;;;;;;5093627;28;20036;-74
2020/12/01 02:06:36;;;;;;;28.88;19.42;;;;;;;;;;5094403;28;20043;-74
2020/12/01 02:09:10;;;;;;;27.23;19.02;;;;;;;;;;5094232;28;20082;-74
2020/12/01 02:11:38;;;;;;;31.52;20.75;;;;;;;;;;5094249;28;20036;-74
2020/12/01 02:14:46;;;;;;;28.42;19.30;;;;;;;;;;5092790;28;20378;-74
2020/12/01 02:17:18;;;;;;;30.00;21.10;;;;;;;;;;5086650;28;20606;-74
2020/12/01 02:19:43;;;;;;;29.50;19.45;;;;;;;;;;5094124;28;20496;-74
2020/12/01 02:22:16;;;;;;;25.52;17.80;;;;;;;;;;5093924;28;20036;-74
2020/12/01 02:24:42;;;;;;;28.08;18.90;;;;;;;;;;5092939;28;20032;-74
2020/12/01 02:27:09;;;;;;;25.85;18.23;;;;;;;;;;5093924;28;20420;-74
2020/12/01 02:29:36;;;;;;;25.95;17.58;;;;;;;;;;5094014;28;20039;-73
2020/12/01 02:32:04;;;;;;;25.98;17.50;;;;;;;;;;5093699;28;20122;-74
2020/12/01 02:34:38;;;;;;;27.27;18.23;;;;;;;;;;5093855;28;20046;-74
2020/12/01 02:37:04;;;;;;;27.35;18.63;;;;;;;;;;5092459;28;20480;-74
2020/12/01 02:39:32;;;;;;;27.58;17.88;;;;;;;;;;5092447;28;20442;-74
2020/12/01 02:41:59;;;;;;;25.15;17.05;;;;;;;;;;5093762;28;20042;-74
2020/12/01 02:44:26;;;;;;;29.17;19.50;;;;;;;;;;5093748;28;20040;-74
2020/12/01 02:46:52;;;;;;;23.42;16.02;;;;;;;;;;5093634;28;20032;-74
2020/12/01 02:49:18;;;;;;;22.30;15.85;;;;;;;;;;5091563;28;20027;-74
2020/12/01 02:51:43;;;;;;;20.10;14.35;;;;;;;;;;5093634;28;20089;-74
2020/12/01 02:54:08;;;;;;;29.63;18.10;;;;;;;;;;5093618;28;20023;-74
2020/12/01 02:56:34;;;;;;;25.25;16.27;;;;;;;;;;5093712;28;20036;-74
2020/12/01 02:58:59;;;;;;;24.17;16.38;;;;;;;;;;5093352;28;20382;-74
2020/12/01 03:01:25;;;;;;;25.15;16.63;;;;;;;;;;5093487;28;20032;-74
2020/12/01 03:03:50;;;;;;;26.90;17.02;;;;;;;;;;5093571;28;20397;-74
2020/12/01 03:06:18;;;;;;;22.80;16.15;;;;;;;;;;5093558;28;20040;-74
2020/12/01 03:08:43;;;;;;;23.10;15.80;;;;;;;;;;5092494;28;20473;-74
2020/12/01 03:11:09;;;;;;;20.80;13.80;;;;;;;;;;5093414;28;20036;-74
2020/12/01 03:13:35;;;;;;;22.90;15.90;;;;;;;;;;5093391;28;20044;-75
2020/12/01 03:16:10;;;;;;;21.25;15.20;;;;;;;;;;5095028;28;20388;-75
2020/12/01 03:18:37;;;;;;;24.13;16.13;;;;;;;;;;5096609;28;20088;-75
2020/12/01 03:21:03;;;;;;;24.45;16.75;;;;;;;;;;5097119;28;20028;-74
2020/12/01 03:23:28;;;;;;;22.33;15.63;;;;;;;;;;5097523;28;20036;-74
2020/12/01 03:25:54;;;;;;;24.17;15.95;;;;;;;;;;5096633;28;20173;-74
2020/12/01 03:28:20;;;;;;;22.27;15.20;;;;;;;;;;5097303;28;20036;-74
2020/12/01 03:30:45;;;;;;;22.85;16.05;;;;;;;;;;5095952;28;20034;-76
2020/12/01 03:33:10;;;;;;;24.33;16.65;;;;;;;;;;5097478;28;20036;-74
2020/12/01 03:35:36;;;;;;;23.63;15.88;;;;;;;;;;5097198;28;20044;-74
2020/12/01 03:38:02;;;;;;;21.25;14.75;;;;;;;;;;5096350;28;20343;-74
2020/12/01 03:40:28;;;;;;;22.13;15.18;;;;;;;;;;5096975;28;20047;-74
2020/12/01 03:42:53;;;;;;;24.02;16.38;;;;;;;;;;5095829;28;20358;-74
2020/12/01 03:45:19;;;;;;;23.30;15.43;;;;;;;;;;5097020;28;20040;-74
2020/12/01 03:47:44;;;;;;;25.40;16.38;;;;;;;;;;5097181;28;20435;-74
2020/12/01 03:50:13;;;;;;;21.33;14.38;;;;;;;;;;5096360;28;20103;-75
2020/12/01 03:52:38;;;;;;;22.77;15.05;;;;;;;;;;5095915;28;20135;-76
2020/12/01 03:55:05;;;;;;;21.63;15.18;;;;;;;;;;5096633;28;20114;-76
2020/12/01 03:57:40;;;;;;;22.38;15.27;;;;;;;;;;5096766;28;20031;-76
2020/12/01 04:00:13;;;;;;;22.58;14.90;;;;;;;;;;5095734;28;20115;-76
2020/12/01 04:02:39;;;;;;;22.80;15.52;;;;;;;;;;5096716;28;20127;-76
2020/12/01 04:05:05;;;;;;;19.58;13.23;;;;;;;;;;5096540;28;20074;-76
2020/12/01 04:07:32;;;;;;;21.30;14.93;;;;;;;;;;5096389;28;20093;-76
2020/12/01 04:09:57;;;;;;;20.15;14.25;;;;;;;;;;5096876;28;20374;-77
2020/12/01 04:12:27;;;;;;;20.23;14.25;;;;;;;;;;5095611;28;20035;-77
2020/12/01 04:14:53;;;;;;;19.33;13.73;;;;;;;;;;5096377;28;20096;-77
2020/12/01 04:17:19;;;;;;;18.60;13.38;;;;;;;;;;5096438;28;20484;-77
2020/12/01 04:19:44;;;;;;;19.65;13.77;;;;;;;;;;5096393;28;20118;-77
2020/12/01 04:22:11;;;;;;;21.48;14.40;;;;;;;;;;5096435;28;20381;-76
2020/12/01 04:24:37;;;;;;;20.55;14.80;;;;;;;;;;5094989;28;20501;-77
2020/12/01 04:27:04;;;;;;;19.52;13.85;;;;;;;;;;5095278;28;20432;-77
2020/12/01 04:29:29;;;;;;;21.70;14.82;;;;;;;;;;5096184;28;20051;-77
2020/12/01 04:31:54;;;;;;;19.92;14.48;;;;;;;;;;5078748;28;20032;-77
2020/12/01 04:34:20;;;;;;;22.60;13.95;;;;;;;;;;5075936;28;20032;-77
2020/12/01 04:36:45;;;;;;;24.50;15.88;;;;;;;;;;5077668;28;20067;-77
2020/12/01 04:39:12;;;;;;;19.58;14.07;;;;;;;;;;5095934;28;20048;-76
2020/12/01 04:41:37;;;;;;;19.92;13.82;;;;;;;;;;5096073;28;20024;-76
2020/12/01 04:44:03;;;;;;;20.95;14.50;;;;;;;;;;5095844;28;20477;-76
2020/12/01 04:46:35;;;;;;;21.10;14.70;;;;;;;;;;5095948;28;20141;-77
2020/12/01 04:49:26;;;;;;;25.50;14.95;;;;;;;;;;5095858;28;20041;-76
2020/12/01 04:52:00;;;;;;;24.33;15.77;;;;;;;;;;5092485;28;20501;-76
2020/12/01 04:54:47;;;;;;;24.92;17.00;;;;;;;;;;5095605;28;20039;-75
2020/12/01 04:57:36;;;;;;;22.92;14.85;;;;;;;;;;5075483;28;20044;-76
2020/12/01 05:00:19;;;;;;;23.83;15.07;;;;;;;;;;5075377;28;20083;-76
2020/12/01 05:03:15;;;;;;;21.80;14.23;;;;;;;;;;5075335;28;20029;-76
2020/12/01 05:06:22;;;;;;;22.27;14.63;;;;;;;;;;5074044;28;20036;-76
2020/12/01 05:08:56;;;;;;;19.05;13.75;;;;;;;;;;5075494;28;20032;-76
2020/12/01 05:11:36;;;;;;;18.92;13.00;;;;;;;;;;5073970;28;20127;-76
2020/12/01 05:14:17;;;;;;;20.98;14.82;;;;;;;;;;5075244;28;20044;-76
2020/12/01 05:16:54;;;;;;;26.20;16.05;;;;;;;;;;5075104;28;20127;-76
2020/12/01 05:19:44;;;;;;;24.85;15.93;;;;;;;;;;5074881;28;20043;-76
2020/12/01 05:22:12;;;;;;;24.80;16.50;;;;;;;;;;5075006;28;20382;-76
2020/12/01 05:24:42;;;;;;;23.88;16.42;;;;;;;;;;5074742;28;20047;-76
2020/12/01 05:27:21;;;;;;;22.23;14.93;;;;;;;;;;5073471;28;20070;-76
2020/12/01 05:30:23;;;;;;;23.65;15.55;;;;;;;;;;5074904;28;20037;-76
2020/12/01 05:32:58;;;;;;;20.77;14.40;;;;;;;;;;5062612;28;20052;-76
2020/12/01 05:35:29;;;;;;;24.58;15.95;;;;;;;;;;5074469;28;20040;-76
2020/12/01 05:38:04;;;;;;;22.25;15.00;;;;;;;;;;5074581;28;20466;-76
2020/12/01 05:40:33;;;;;;;24.40;16.50;;;;;;;;;;5074543;28;20478;-76
2020/12/01 05:42:59;;;;;;;20.90;14.80;;;;;;;;;;5074457;28;20115;-77
2020/12/01 05:45:33;;;;;;;21.67;14.63;;;;;;;;;;5074388;28;20406;-76
2020/12/01 05:48:35;;;;;;;24.05;16.42;;;;;;;;;;5074303;28;20040;-77
2020/12/01 05:51:09;;;;;;;23.02;15.35;;;;;;;;;;5088369;28;20047;-77
2020/12/01 05:53:34;;;;;;;22.13;14.73;;;;;;;;;;5094728;28;20031;-76
2020/12/01 05:56:20;;;;;;;24.85;16.70;;;;;;;;;;5094636;28;20031;-77
2020/12/01 05:59:06;;;;;;;21.23;14.65;;;;;;;;;;5094202;28;20134;-76
2020/12/01 06:01:46;;;;;;;26.70;16.98;;;;;;;;;;5094568;28;20048;-77
2020/12/01 06:04:22;;;;;;;24.83;17.02;;;;;;;;;;5094352;28;20405;-76
2020/12/01 06:06:58;;;;;;;23.98;15.98;;;;;;;;;;5094332;28;20040;-77
2020/12/01 06:09:42;;;;;;;25.63;16.30;;;;;;;;;;5094372;28;20035;-77
2020/12/01 06:12:36;;;;;;;21.70;15.20;;;;;;;;;;5094480;28;20040;-77
2020/12/01 06:15:13;;;;;;;24.13;15.77;;;;;;;;;;5084431;28;20036;-80
2020/12/01 06:17:48;;;;;;;21.00;14.20;;;;;;;;;;5094233;28;20044;-75
2020/12/01 06:20:16;;;;;;;22.15;15.23;;;;;;;;;;5093146;28;20387;-75
2020/12/01 06:23:13;;;;;;;22.77;16.20;;;;;;;;;;5094102;28;20032;-74
2020/12/01 06:26:06;;;;;;;22.25;15.25;;;;;;;;;;5094049;28;20097;-74
2020/12/01 06:28:50;;;;;;;19.30;13.88;;;;;;;;;;5094229;28;20362;-74
2020/12/01 06:31:30;;;;;;;24.02;14.82;;;;;;;;;;5093624;28;20043;-74
2020/12/01 06:34:20;;;;;;;23.80;15.05;;;;;;;;;;5093742;28;20497;-75
2020/12/01 06:37:19;;;;;;;19.33;13.90;;;;;;;;;;5093883;28;20529;-76
2020/12/01 06:39:47;;;;;;;27.73;18.50;;;;;;;;;;5093513;28;20044;-75
2020/12/01 06:42:19;;;;;;;23.02;16.05;;;;;;;;;;5093558;28;20122;-75
2020/12/01 06:44:52;;;;;;;25.58;16.17;;;;;;;;;;5093667;28;20054;-75
2020/12/01 06:47:24;;;;;;;22.75;16.38;;;;;;;;;;5093673;28;20093;-75
2020/12/01 06:49:53;;;;;;;23.23;16.30;;;;;;;;;;5090877;28;20035;-75
2020/12/01 06:52:18;;;;;;;23.17;15.80;;;;;;;;;;5074273;28;20036;-75
2020/12/01 06:54:56;;;;;;;21.77;15.48;;;;;;;;;;5090156;28;20040;-75
2020/12/01 06:57:27;;;;;;;25.75;16.70;;;;;;;;;;5093688;28;20388;-75
2020/12/01 06:59:52;;;;;;;22.48;14.85;;;;;;;;;;5093688;28;20082;-76
2020/12/01 07:02:25;;;;;;;23.58;16.08;;;;;;;;;;5092389;28;20058;-75
2020/12/01 07:05:11;;;;;;;21.73;15.80;;;;;;;;;;5093443;28;20131;-76
2020/12/01 07:07:42;;;;;;;23.67;15.68;;;;;;;;;;5093607;28;20486;-76
2020/12/01 07:10:33;;;;;;;21.83;14.68;;;;;;;;;;5092952;28;20032;-76
2020/12/01 07:13:35;;;;;;;23.60;15.68;;;;;;;;;;5092812;28;20149;-76
2020/12/01 07:16:17;;;;;;;24.73;16.25;;;;;;;;;;5093251;28;20043;-76
2020/12/01 07:18:45;;;;;;;22.35;15.90;;;;;;;;;;5092612;28;20067;-76
2020/12/01 07:21:38;;;;;;;25.30;16.42;;;;;;;;;;5093220;28;20039;-75
2020/12/01 07:24:18;;;;;;;22.80;15.13;;;;;;;;;;5093057;28;20024;-76
2020/12/01 07:26:57;;;;;;;21.67;14.95;;;;;;;;;;5093108;28;20418;-77
2020/12/01 07:29:33;;;;;;;20.52;14.40;;;;;;;;;;5093344;28;20028;-76
2020/12/01 07:32:05;;;;;;;20.92;14.50;;;;;;;;;;5091978;28;20458;-76
2020/12/01 07:34:32;;;;;;;23.40;15.57;;;;;;;;;;5093351;28;20450;-76
2020/12/01 07:37:41;;;;;;;23.08;15.65;;;;;;;;;;5091953;28;20055;-76
2020/12/01 07:40:07;;;;;;;24.52;15.82;;;;;;;;;;5082400;28;20056;-76
2020/12/01 07:42:36;;;;;;;26.27;17.92;;;;;;;;;;5093259;28;20040;-75
2020/12/01 07:45:15;;;;;;;25.05;17.27;;;;;;;;;;5093175;28;20032;-75
2020/12/01 07:47:40;;;;;;;26.98;17.35;;;;;;;;;;5093450;28;20036;-75
2020/12/01 07:50:20;;;;;;;29.08;18.35;;;;;;;;;;5094662;28;20085;-78
2020/12/01 07:52:48;;;;;;;23.58;16.52;;;;;;;;;;5092246;28;20047;-77
2020/12/01 07:55:37;;;;;;;25.70;17.42;;;;;;;;;;5092996;28;20607;-76
2020/12/01 07:58:18;;;;;;;23.77;16.60;;;;;;;;;;5092913;28;20050;-76
2020/12/01 08:00:52;;;;;;;25.25;17.00;;;;;;;;;;5092869;28;20032;-77
2020/12/01 08:03:24;;;;;;;24.90;17.98;;;;;;;;;;5095934;28;20036;-76
2020/12/01 08:05:51;;;;;;;23.95;16.60;;;;;;;;;;5097400;28;20062;-75
2020/12/01 08:08:20;;;;;;;25.15;17.35;;;;;;;;;;5096814;28;20036;-76
2020/12/01 08:10:47;;;;;;;25.38;16.83;;;;;;;;;;5097401;28;20447;-75
2020/12/01 08:13:14;;;;;;;24.25;16.02;;;;;;;;;;5096373;28;20067;-76
2020/12/01 08:15:40;;;;;;;22.90;16.40;;;;;;;;;;5096214;28;20040;-76
2020/12/01 08:18:12;;;;;;;26.92;16.83;;;;;;;;;;5095501;28;20036;-75
2020/12/01 08:20:38;;;;;;;24.40;16.48;;;;;;;;;;5096442;28;20032;-76
2020/12/01 08:23:09;;;;;;;25.50;16.45;;;;;;;;;;5096422;28;20042;-76
2020/12/01 08:25:36;;;;;;;27.83;16.90;;;;;;;;;;5096306;28;20044;-76
2020/12/01 08:28:25;;;;;;;28.38;18.30;;;;;;;;;;5096466;28;20177;-75
2020/12/01 08:31:04;;;;;;;25.00;17.02;;;;;;;;;;5095285;28;20078;-75
2020/12/01 08:33:39;;;;;;;24.25;16.60;;;;;;;;;;5096474;28;20040;-75
2020/12/01 08:36:28;;;;;;;26.27;17.58;;;;;;;;;;5095691;28;20040;-75
2020/12/01 08:39:02;;;;;;;25.20;16.42;;;;;;;;;;5095487;28;20040;-74
2020/12/01 08:41:59;;;;;;;28.45;16.83;;;;;;;;;;5095828;28;20115;-74
2020/12/01 08:44:44;;;;;;;26.33;16.88;;;;;;;;;;5096922;28;20044;-75
2020/12/01 08:47:10;;;;;;;22.42;15.57;;;;;;;;;;5096989;28;20039;-75
2020/12/01 08:49:46;;;;;;;25.88;16.42;;;;;;;;;;5095284;28;20024;-74
2020/12/01 08:52:34;;;;;;;24.40;16.80;;;;;;;;;;5095866;28;20039;-75
2020/12/01 08:55:25;;;;;;;23.20;15.50;;;;;;;;;;5096243;28;20040;-75
2020/12/01 08:57:59;;;;;;;24.58;17.23;;;;;;;;;;5095868;28;20044;-75
2020/12/01 09:00:25;;;;;;;21.52;15.02;;;;;;;;;;5095430;28;20032;-74
2020/12/01 09:02:51;;;;;;;26.52;17.73;;;;;;;;;;5094051;28;20040;-76
2020/12/01 09:05:33;;;;;;;24.50;17.33;;;;;;;;;;5096071;28;20036;-76
2020/12/01 09:08:15;;;;;;;28.33;18.67;;;;;;;;;;5094668;28;20027;-76
2020/12/01 09:10:41;;;;;;;29.50;18.90;;;;;;;;;;5093897;28;20043;-76
2020/12/01 09:23:22;;;;;;;26.75;18.20;;;;;;;;;;5094952;28;20040;-76
2020/12/01 09:25:49;;;;;;;27.88;17.20;;;;;;;;;;5095084;28;20028;-76
2020/12/01 09:28:23;;;;;;;26.05;18.60;;;;;;;;;;5094621;28;20028;-76
2020/12/01 09:30:48;;;;;;;24.33;16.75;;;;;;;;;;5094347;28;20046;-77
2020/12/01 09:33:17;;;;;;;26.05;18.02;;;;;;;;;;5094442;28;20115;-76
2020/12/01 09:35:43;;;;;;;24.23;16.65;;;;;;;;;;5094839;28;20028;-77
2020/12/01 09:38:09;;;;;;;24.42;17.02;;;;;;;;;;5095200;28;20040;-77
2020/12/01 09:40:36;;;;;;;25.20;17.92;;;;;;;;;;5094973;28;20127;-76
2020/12/01 09:43:14;;;;;;;25.83;18.10;;;;;;;;;;5094824;28;20489;-77
2020/12/01 09:45:42;;;;;;;30.63;19.73;;;;;;;;;;5094927;28;20044;-77
2020/12/01 09:50:36;;;;;;;41.40;25.35;;;;;;;;;;5093095;28;20470;-76
2020/12/01 10:07:33;;;;;;;25.42;17.55;;;;;;;;;;5098359;28;20036;-73
2020/12/01 10:11:36;;;;;;;26.15;16.88;;;;;;;;;;5094459;28;20040;-74
2020/12/01 10:14:09;;;;;;;26.30;17.75;;;;;;;;;;5094244;28;20036;-74
2020/12/01 10:17:09;;;;;;;22.85;16.10;;;;;;;;;;5092538;28;20046;-74
2020/12/01 10:37:12;;;;;;;23.38;16.45;;;;;;;;;;5094097;28;20031;-74
2020/12/01 10:39:38;;;;;;;23.13;15.52;;;;;;;;;;5093893;28;20027;-74
2020/12/01 10:42:08;;;;;;;23.55;15.38;;;;;;;;;;5093887;28;20024;-72
2020/12/01 10:44:34;;;;;;;24.55;16.73;;;;;;;;;;5093791;28;20438;-72
2020/12/01 10:46:59;;;;;;;25.60;16.33;;;;;;;;;;5093719;28;20031;-73
2020/12/01 10:49:25;;;;;;;23.52;15.65;;;;;;;;;;5093733;28;20032;-72
2020/12/01 10:51:50;;;;;;;23.92;15.55;;;;;;;;;;5093636;28;20686;-72
2020/12/01 10:54:16;;;;;;;21.80;14.88;;;;;;;;;;5093476;28;20109;-72
2020/12/01 10:56:48;;;;;;;24.45;17.13;;;;;;;;;;5093704;28;20119;-72
2020/12/01 10:59:14;;;;;;;23.83;15.57;;;;;;;;;;5093458;28;20044;-73
2020/12/01 11:01:40;;;;;;;27.02;16.60;;;;;;;;;;5093659;28;20066;-73
2020/12/01 11:04:06;;;;;;;23.55;16.73;;;;;;;;;;5092511;28;20036;-73
2020/12/01 11:06:32;;;;;;;23.55;15.50;;;;;;;;;;5092242;28;20116;-75
2020/12/01 11:08:57;;;;;;;22.42;15.50;;;;;;;;;;5093273;28;20055;-72
2020/12/01 11:11:23;;;;;;;25.10;15.93;;;;;;;;;;5093765;28;20167;-75
2020/12/01 11:13:48;;;;;;;20.00;14.32;;;;;;;;;;5093471;28;20063;-74
2020/12/01 11:16:14;;;;;;;19.75;14.57;;;;;;;;;;5093642;28;20039;-75
2020/12/01 11:18:40;;;;;;;23.00;15.63;;;;;;;;;;5093612;28;20085;-74
2020/12/01 11:21:05;;;;;;;31.92;18.58;;;;;;;;;;5092099;28;20032;-72
2020/12/01 11:23:31;;;;;;;26.33;17.10;;;;;;;;;;5092411;28;20123;-73
2020/12/01 11:25:56;;;;;;;23.33;16.30;;;;;;;;;;5093528;28;20381;-71
2020/12/01 11:28:22;;;;;;;22.83;16.05;;;;;;;;;;5092802;28;20032;-76
2020/12/01 11:30:47;;;;;;;31.50;20.67;;;;;;;;;;5093682;28;20028;-76
2020/12/01 11:33:13;;;;;;;26.17;18.10;;;;;;;;;;5093684;28;20036;-75
2020/12/01 11:35:38;;;;;;;26.90;17.75;;;;;;;;;;5093921;28;20216;-75
2020/12/01 11:38:04;;;;;;;28.65;18.23;;;;;;;;;;5097345;28;20039;-75
2020/12/01 11:40:29;;;;;;;24.55;17.17;;;;;;;;;;5096761;28;20036;-74
2020/12/01 11:42:54;;;;;;;28.60;17.83;;;;;;;;;;5097277;28;20039;-74
2020/12/01 11:45:20;;;;;;;25.05;17.40;;;;;;;;;;5097822;28;20056;-74
2020/12/01 11:47:45;;;;;;;25.83;17.70;;;;;;;;;;5097628;28;20028;-74
2020/12/01 11:50:12;;;;;;;25.20;15.73;;;;;;;;;;5097240;28;20412;-75
2020/12/01 11:52:37;;;;;;;23.73;15.82;;;;;;;;;;5096055;28;20123;-74
2020/12/01 11:55:05;;;;;;;22.73;15.70;;;;;;;;;;5095276;28;20504;-74
2020/12/01 11:57:30;;;;;;;23.25;15.25;;;;;;;;;;5096705;28;20031;-74
2020/12/01 11:59:56;;;;;;;24.25;16.52;;;;;;;;;;5095696;28;20526;-74
2020/12/01 12:02:21;;;;;;;21.65;15.02;;;;;;;;;;5096769;28;20032;-74
2020/12/01 12:04:47;;;;;;;22.45;15.77;;;;;;;;;;5096706;28;20039;-74
2020/12/01 12:07:12;;;;;;;30.08;17.63;;;;;;;;;;5096695;28;20385;-74
2020/12/01 12:09:37;;;;;;;27.73;17.15;;;;;;;;;;5096656;28;20036;-74
2020/12/01 12:12:03;;;;;;;24.98;16.95;;;;;;;;;;5095345;28;20036;-74
2020/12/01 12:14:28;;;;;;;25.98;17.33;;;;;;;;;;5096472;28;20043;-74
2020/12/01 12:16:53;;;;;;;27.85;17.70;;;;;;;;;;5096439;28;20043;-75
2020/12/01 12:19:19;;;;;;;29.08;18.52;;;;;;;;;;5096509;28;20413;-74
2020/12/01 12:21:44;;;;;;;26.30;15.45;;;;;;;;;;5095556;28;20546;-74
2020/12/01 12:24:09;;;;;;;27.25;17.50;;;;;;;;;;5096416;28;20040;-74
2020/12/01 12:26:35;;;;;;;24.63;16.80;;;;;;;;;;5096500;28;20040;-74
2020/12/01 12:29:00;;;;;;;23.98;15.73;;;;;;;;;;5096333;28;20242;-74
2020/12/01 12:31:26;;;;;;;22.88;15.63;;;;;;;;;;5096009;28;20032;-74
2020/12/01 12:33:51;;;;;;;26.25;17.27;;;;;;;;;;5096329;28;20377;-74
2020/12/01 12:36:17;;;;;;;24.42;16.58;;;;;;;;;;5096232;28;20092;-74
2020/12/01 12:38:42;;;;;;;26.25;16.38;;;;;;;;;;5096049;28;20058;-75
2020/12/01 12:41:08;;;;;;;24.92;16.63;;;;;;;;;;5096055;28;20040;-74
2020/12/01 12:43:33;;;;;;;25.65;16.77;;;;;;;;;;5096113;28;20024;-74
2020/12/01 12:45:59;;;;;;;24.98;17.10;;;;;;;;;;5095816;28;20040;-74
2020/12/01 12:48:26;;;;;;;28.38;17.33;;;;;;;;;;5094330;28;20059;-74
2020/12/01 12:50:51;;;;;;;23.58;16.13;;;;;;;;;;5095836;28;20390;-74
2020/12/01 12:53:17;;;;;;;26.35;17.38;;;;;;;;;;5095807;28;20128;-74
2020/12/01 12:55:42;;;;;;;27.08;16.63;;;;;;;;;;5095669;28;20030;-74
2020/12/01 12:58:07;;;;;;;31.80;18.13;;;;;;;;;;5095743;28;20036;-74
2020/12/01 13:00:33;;;;;;;30.38;17.80;;;;;;;;;;5095572;28;20089;-74
2020/12/01 13:02:59;;;;;;;33.38;18.48;;;;;;;;;;5095652;28;20046;-74
2020/12/01 13:05:25;;;;;;;29.38;18.83;;;;;;;;;;5095522;28;20565;-74
2020/12/01 13:07:50;;;;;;;27.92;17.33;;;;;;;;;;5095582;28;20043;-74
2020/12/01 13:10:17;;;;;;;31.10;16.55;;;;;;;;;;5095531;28;20036;-74
2020/12/01 13:12:43;;;;;;;33.30;17.45;;;;;;;;;;5095619;28;20050;-74
2020/12/01 13:15:09;;;;;;;24.33;16.20;;;;;;;;;;5095415;28;20375;-74
2020/12/01 13:17:35;;;;;;;38.17;22.10;;;;;;;;;;5095416;28;20039;-74
2020/12/01 13:20:02;;;;;;;35.25;21.35;;;;;;;;;;5095220;28;20032;-74
2020/12/01 13:22:27;;;;;;;35.67;19.45;;;;;;;;;;5095247;28;20398;-74
2020/12/01 13:24:53;;;;;;;31.48;19.17;;;;;;;;;;5095169;28;20032;-74
2020/12/01 13:27:18;;;;;;;37.50;21.35;;;;;;;;;;5094317;28;20462;-74
2020/12/01 13:29:44;;;;;;;30.27;17.83;;;;;;;;;;5095266;28;20032;-74
2020/12/01 13:32:10;;;;;;;25.20;17.92;;;;;;;;;;5095099;28;20035;-74
2020/12/01 13:34:35;;;;;;;27.70;17.13;;;;;;;;;;5093713;28;20063;-74
2020/12/01 13:37:00;;;;;;;25.73;15.70;;;;;;;;;;5094953;28;20032;-74
2020/12/01 13:39:26;;;;;;;25.30;16.35;;;;;;;;;;5094872;28;20062;-74
2020/12/01 13:41:53;;;;;;;25.23;16.63;;;;;;;;;;5094726;28;20036;-74
2020/12/01 13:44:20;;;;;;;25.15;16.95;;;;;;;;;;5094864;28;20035;-74
2020/12/01 13:46:45;;;;;;;24.83;17.13;;;;;;;;;;5094741;28;20036;-74
2020/12/01 13:49:13;;;;;;;25.77;15.75;;;;;;;;;;5094794;28;20032;-74
2020/12/01 13:51:38;;;;;;;27.10;15.68;;;;;;;;;;5093791;28;20051;-74
2020/12/01 13:54:05;;;;;;;24.95;16.52;;;;;;;;;;5094608;28;20024;-74
2020/12/01 13:56:30;;;;;;;27.88;17.67;;;;;;;;;;5094702;28;20165;-74
2020/12/01 13:58:58;;;;;;;31.73;19.65;;;;;;;;;;5093693;28;20119;-74
2020/12/01 14:01:27;;;;;;;26.13;15.95;;;;;;;;;;5094127;28;20595;-74
2020/12/01 14:03:53;;;;;;;19.85;14.57;;;;;;;;;;5094806;28;20039;-74
2020/12/01 14:06:18;;;;;;;22.98;15.40;;;;;;;;;;5095836;28;20114;-74
2020/12/01 14:08:45;;;;;;;24.70;15.77;;;;;;;;;;5095702;28;20051;-74
2020/12/01 14:11:18;;;;;;;30.75;18.90;;;;;;;;;;5092901;28;20032;-74
2020/12/01 14:13:45;;;;;;;95.43;45.70;;;;;;;;;;5093294;28;20038;-74
2020/12/01 14:16:11;;;;;;;108.18;53.30;;;;;;;;;;5095189;28;20027;-74
2020/12/01 14:18:36;;;;;;;75.10;39.85;;;;;;;;;;5095428;28;20138;-74
2020/12/01 14:21:03;;;;;;;44.72;24.45;;;;;;;;;;5094297;28;20122;-74
2020/12/01 14:23:29;;;;;;;28.73;18.38;;;;;;;;;;5091782;28;20028;-74
2020/12/01 14:25:55;;;;;;;20.10;14.73;;;;;;;;;;5093041;28;20032;-74
2020/12/01 14:28:21;;;;;;;20.52;13.88;;;;;;;;;;5092360;28;20496;-74
2020/12/01 14:30:48;;;;;;;20.02;13.40;;;;;;;;;;5093178;28;20032;-74
2020/12/01 14:33:13;;;;;;;20.95;13.93;;;;;;;;;;5094007;28;20114;-74
2020/12/01 14:35:39;;;;;;;20.35;14.05;;;;;;;;;;5094115;28;20111;-73
2020/12/01 14:38:04;;;;;;;20.45;13.50;;;;;;;;;;5093972;28;20032;-73
2020/12/01 14:40:29;;;;;;;17.90;13.18;;;;;;;;;;5093228;28;20028;-74
2020/12/01 14:43:00;;;;;;;23.58;14.30;;;;;;;;;;5092762;28;20378;-74
2020/12/01 14:45:25;;;;;;;20.48;13.15;;;;;;;;;;5094003;28;20039;-74
2020/12/01 14:47:56;;;;;;;18.00;13.40;;;;;;;;;;5092973;28;20126;-73
2020/12/01 14:50:24;;;;;;;22.25;14.15;;;;;;;;;;5093199;28;20027;-74
2020/12/01 14:53:00;;;;;;;22.05;14.90;;;;;;;;;;5094014;28;20119;-73
2020/12/01 14:55:41;;;;;;;;;;;;;;;;;;5094345;28;20044;-73
2020/12/01 14:58:10;;;;;;;23.70;15.90;;;;;;;;;;5093875;28;20350;-74
2020/12/01 15:00:51;;;;;;;22.63;15.48;;;;;;;;;;5092653;28;20486;-73
2020/12/01 15:03:44;;;;;;;19.08;13.35;;;;;;;;;;5093617;28;20044;-73
2020/12/01 15:06:37;;;;;;;27.40;16.90;;;;;;;;;;5093624;28;20474;-73
2020/12/01 15:09:38;;;;;;;22.15;15.10;;;;;;;;;;5093381;28;20036;-74
2020/12/01 15:12:22;;;;;;;21.48;14.10;;;;;;;;;;5093000;28;20142;-73
2020/12/01 15:14:48;;;;;;;22.30;14.75;;;;;;;;;;5093409;28;20036;-73
2020/12/01 15:17:25;;;;;;;16.80;12.98;;;;;;;;;;5093405;28;20032;-73
2020/12/01 15:19:56;;;;;;;20.98;15.10;;;;;;;;;;5076314;28;20039;-73
2020/12/01 15:22:39;;;;;;;24.58;14.95;;;;;;;;;;5073265;28;20056;-74